createdAt,value
2019-04-16T00:00:12.066Z,24.58
2019-04-16T00:01:11.237Z,24.58
2019-04-16T00:02:10.515Z,24.58
2019-04-16T00:03:10.504Z,24.98
2019-04-16T00:04:10.499Z,24.98
2019-04-16T00:05:10.490Z,25.28
2019-04-16T00:06:10.462Z,25.18
2019-04-16T00:07:10.464Z,24.48
2019-04-16T00:08:26.619Z,25.18
2019-04-16T00:09:11.450Z,25.48
2019-04-16T00:10:10.428Z,25.48
2019-04-16T00:11:10.427Z,25.59
2019-04-16T00:12:10.423Z,25.18
2019-04-16T00:13:10.383Z,25.28
2019-04-16T00:14:10.388Z,25.59
2019-04-16T00:15:10.400Z,25.18
2019-04-16T00:16:13.024Z,25.38
2019-04-16T00:17:10.375Z,24.88
2019-04-16T00:18:10.331Z,24.79
2019-04-16T00:19:10.336Z,25.59
2019-04-16T00:20:10.323Z,25.28
2019-04-16T00:21:10.748Z,24.58
2019-04-16T00:22:12.333Z,25.09
2019-04-16T00:23:10.290Z,24.79
2019-04-16T00:24:10.265Z,25.18
2019-04-16T00:25:10.254Z,24.38
2019-04-16T00:26:10.240Z,24.79
2019-04-16T00:27:10.241Z,25.18
2019-04-16T00:28:10.305Z,24.88
2019-04-16T00:29:10.226Z,24.88
2019-04-16T00:30:10.220Z,25.48
2019-04-16T00:31:10.187Z,24.79
2019-04-16T00:32:10.182Z,25.18
2019-04-16T00:33:10.796Z,25.18
2019-04-16T00:34:13.341Z,25.18
2019-04-16T00:35:10.153Z,25.28
2019-04-16T00:36:10.191Z,25.18
2019-04-16T00:37:10.116Z,25.09
2019-04-16T00:38:10.114Z,25.18
2019-04-16T00:39:10.110Z,24.58
2019-04-16T00:40:10.102Z,25.18
2019-04-16T00:41:10.095Z,25.18
2019-04-16T00:42:10.059Z,25.48
2019-04-16T00:43:10.056Z,24.79
2019-04-16T00:44:10.047Z,24.79
2019-04-16T00:45:10.053Z,24.79
2019-04-16T00:46:11.521Z,24.79
2019-04-16T00:47:10.054Z,24.88
2019-04-16T00:48:10.033Z,24.48
2019-04-16T00:49:10.032Z,24.29
2019-04-16T00:50:10.041Z,24.88
2019-04-16T00:51:09.965Z,24.79
2019-04-16T00:52:09.959Z,24.58
2019-04-16T00:53:09.953Z,24.58
2019-04-16T00:54:11.247Z,24.79
2019-04-16T00:55:13.674Z,24.98
2019-04-16T00:56:09.911Z,24.29
2019-04-16T00:57:09.889Z,24.58
2019-04-16T00:58:09.891Z,24.79
2019-04-16T00:59:09.901Z,24.79
2019-04-16T01:00:09.876Z,24.88
2019-04-16T01:01:09.860Z,24.49
2019-04-16T01:02:09.843Z,24.79
2019-04-16T01:03:09.830Z,24.29
2019-04-16T01:04:09.842Z,24.58
2019-04-16T01:05:09.809Z,24.48
2019-04-16T01:06:09.785Z,24.29
2019-04-16T01:07:09.791Z,24.98
2019-04-16T01:08:09.784Z,24.10
2019-04-16T01:09:09.778Z,24.88
2019-04-16T01:10:09.781Z,24.18
2019-04-16T01:11:09.733Z,24.29
2019-04-16T01:12:09.738Z,24.30
2019-04-16T01:13:09.712Z,24.88
2019-04-16T01:14:09.719Z,24.48
2019-04-16T01:15:09.697Z,24.88
2019-04-16T01:16:09.684Z,24.88
2019-04-16T01:17:09.671Z,24.58
2019-04-16T01:18:09.663Z,24.58
2019-04-16T01:19:10.909Z,24.18
2019-04-16T01:20:12.862Z,24.08
2019-04-16T01:21:13.767Z,24.29
2019-04-16T01:22:10.796Z,24.49
2019-04-16T01:23:09.764Z,24.08
2019-04-16T01:24:09.754Z,24.79
2019-04-16T01:25:09.748Z,24.58
2019-04-16T01:26:09.590Z,24.48
2019-04-16T01:27:09.552Z,24.18
2019-04-16T01:28:09.546Z,24.58
2019-04-16T01:29:09.525Z,24.08
2019-04-16T01:30:09.517Z,24.48
2019-04-16T01:31:09.526Z,24.58
2019-04-16T01:32:11.418Z,24.08
2019-04-16T01:33:14.421Z,24.08
2019-04-16T01:34:10.533Z,24.29
2019-04-16T01:35:09.466Z,24.58
2019-04-16T01:36:09.473Z,24.08
2019-04-16T01:37:09.451Z,24.29
2019-04-16T01:38:09.437Z,24.08
2019-04-16T01:39:17.402Z,24.58
2019-04-16T01:40:10.441Z,24.48
2019-04-16T01:41:09.398Z,24.58
2019-04-16T01:42:09.396Z,24.08
2019-04-16T01:43:09.399Z,24.48
2019-04-16T01:44:09.386Z,24.08
2019-04-16T01:45:09.352Z,24.29
2019-04-16T01:46:09.349Z,24.68
2019-04-16T01:47:09.328Z,24.48
2019-04-16T01:48:09.329Z,24.18
2019-04-16T01:49:10.515Z,24.48
2019-04-16T01:50:12.978Z,24.08
2019-04-16T01:51:09.300Z,24.48
2019-04-16T01:52:09.279Z,24.08
2019-04-16T01:53:09.275Z,23.99
2019-04-16T01:54:09.250Z,24.08
2019-04-16T01:55:09.238Z,24.08
2019-04-16T01:56:09.237Z,24.48
2019-04-16T01:57:09.210Z,24.58
2019-04-16T01:58:09.197Z,24.29
2019-04-16T01:59:09.203Z,24.18
2019-04-16T02:00:09.321Z,24.48
2019-04-16T02:01:11.192Z,24.48
2019-04-16T02:02:09.153Z,24.19
2019-04-16T02:03:09.146Z,23.99
2019-04-16T02:04:09.372Z,24.29
2019-04-16T02:05:09.140Z,24.10
2019-04-16T02:06:09.119Z,24.58
2019-04-16T02:07:09.123Z,24.48
2019-04-16T02:08:09.165Z,24.38
2019-04-16T02:09:21.974Z,24.38
2019-04-16T02:10:10.069Z,24.48
2019-04-16T02:11:10.662Z,24.68
2019-04-16T02:12:12.979Z,24.48
2019-04-16T02:13:09.029Z,24.48
2019-04-16T02:14:09.021Z,24.18
2019-04-16T02:15:09.007Z,24.08
2019-04-16T02:16:09.016Z,24.18
2019-04-16T02:17:09.008Z,24.88
2019-04-16T02:18:09.001Z,24.10
2019-04-16T02:19:08.993Z,24.29
2019-04-16T02:20:08.950Z,24.58
2019-04-16T02:21:10.741Z,23.99
2019-04-16T02:22:12.597Z,24.38
2019-04-16T02:23:08.916Z,24.48
2019-04-16T02:24:08.927Z,24.29
2019-04-16T02:25:08.910Z,24.38
2019-04-16T02:26:08.887Z,24.38
2019-04-16T02:27:08.878Z,24.29
2019-04-16T02:28:08.884Z,24.30
2019-04-16T02:29:08.884Z,24.49
2019-04-16T02:30:08.841Z,24.48
2019-04-16T02:31:13.932Z,24.29
2019-04-16T02:32:09.860Z,24.29
2019-04-16T02:33:08.821Z,23.99
2019-04-16T02:34:08.844Z,24.38
2019-04-16T02:35:08.794Z,23.99
2019-04-16T02:36:08.975Z,24.58
2019-04-16T02:37:08.829Z,24.48
2019-04-16T02:38:12.301Z,24.38
2019-04-16T02:39:08.754Z,24.38
2019-04-16T02:40:08.896Z,24.30
2019-04-16T02:41:08.715Z,24.58
2019-04-16T02:42:08.726Z,24.38
2019-04-16T02:43:08.922Z,24.30
2019-04-16T02:44:14.205Z,24.18
2019-04-16T02:45:09.670Z,24.18
2019-04-16T02:46:08.704Z,23.79
2019-04-16T02:47:08.848Z,23.99
2019-04-16T02:48:14.771Z,24.58
2019-04-16T02:49:09.632Z,24.18
2019-04-16T02:50:08.632Z,23.79
2019-04-16T02:51:08.714Z,24.19
2019-04-16T02:52:15.008Z,24.18
2019-04-16T02:53:09.586Z,24.08
2019-04-16T02:54:08.591Z,24.18
2019-04-16T02:55:10.513Z,24.18
2019-04-16T02:56:08.573Z,24.29
2019-04-16T02:57:08.536Z,24.30
2019-04-16T02:58:08.531Z,24.49
2019-04-16T02:59:12.275Z,24.29
2019-04-16T03:00:08.518Z,24.19
2019-04-16T03:01:08.535Z,24.40
2019-04-16T03:02:08.482Z,24.29
2019-04-16T03:03:08.470Z,23.99
2019-04-16T03:04:08.470Z,24.48
2019-04-16T03:05:08.496Z,24.68
2019-04-16T03:06:08.433Z,24.40
2019-04-16T03:07:08.431Z,24.38
2019-04-16T03:08:08.422Z,24.29
2019-04-16T03:09:09.776Z,24.30
2019-04-16T03:10:12.079Z,24.40
2019-04-16T03:11:09.434Z,24.19
2019-04-16T03:12:08.382Z,24.10
2019-04-16T03:13:08.350Z,24.30
2019-04-16T03:14:08.338Z,24.40
2019-04-16T03:15:08.375Z,24.69
2019-04-16T03:16:08.583Z,24.38
2019-04-16T03:17:10.608Z,24.08
2019-04-16T03:18:08.293Z,24.38
2019-04-16T03:19:08.296Z,24.30
2019-04-16T03:20:08.278Z,24.29
2019-04-16T03:21:08.264Z,24.18
2019-04-16T03:22:08.266Z,24.58
2019-04-16T03:23:08.250Z,24.38
2019-04-16T03:24:09.538Z,24.48
2019-04-16T03:25:12.567Z,24.29
2019-04-16T03:26:09.201Z,24.58
2019-04-16T03:27:08.220Z,24.48
2019-04-16T03:28:08.187Z,24.48
2019-04-16T03:29:08.169Z,24.08
2019-04-16T03:30:08.171Z,24.48
2019-04-16T03:31:09.668Z,24.48
2019-04-16T03:32:13.455Z,24.38
2019-04-16T03:33:13.748Z,23.88
2019-04-16T03:34:09.126Z,24.08
2019-04-16T03:35:08.147Z,24.18
2019-04-16T03:36:08.098Z,24.29
2019-04-16T03:37:08.108Z,24.18
2019-04-16T03:38:08.070Z,24.48
2019-04-16T03:39:11.990Z,24.58
2019-04-16T03:40:17.040Z,24.60
2019-04-16T03:41:09.040Z,24.29
2019-04-16T03:42:08.020Z,24.48
2019-04-16T03:43:08.024Z,23.99
2019-04-16T03:44:08.021Z,24.29
2019-04-16T03:45:09.720Z,24.68
2019-04-16T03:46:12.121Z,24.68
2019-04-16T03:47:09.011Z,24.48
2019-04-16T03:48:07.993Z,24.18
2019-04-16T03:49:08.175Z,24.38
2019-04-16T03:50:07.953Z,24.68
2019-04-16T03:51:07.953Z,24.18
2019-04-16T03:52:09.382Z,24.68
2019-04-16T03:53:07.936Z,24.48
2019-04-16T03:54:07.916Z,24.38
2019-04-16T03:55:07.884Z,24.29
2019-04-16T03:56:07.872Z,24.48
2019-04-16T03:57:07.872Z,23.99
2019-04-16T03:58:07.843Z,24.18
2019-04-16T03:59:11.815Z,23.99
2019-04-16T04:00:11.225Z,24.38
2019-04-16T04:01:07.819Z,24.48
2019-04-16T04:02:07.805Z,24.38
2019-04-16T04:03:07.825Z,24.18
2019-04-16T04:04:07.783Z,24.08
2019-04-16T04:05:07.854Z,24.29
2019-04-16T04:06:08.090Z,24.18
2019-04-16T04:07:08.782Z,24.18
2019-04-16T04:08:07.736Z,24.08
2019-04-16T04:09:07.711Z,24.38
2019-04-16T04:10:07.719Z,24.48
2019-04-16T04:11:10.443Z,24.08
2019-04-16T04:12:09.635Z,24.68
2019-04-16T04:13:08.671Z,24.38
2019-04-16T04:14:07.664Z,24.48
2019-04-16T04:15:07.642Z,24.48
2019-04-16T04:16:07.954Z,23.88
2019-04-16T04:17:07.821Z,24.58
2019-04-16T04:18:11.281Z,24.29
2019-04-16T04:19:11.246Z,24.58
2019-04-16T04:20:08.602Z,24.38
2019-04-16T04:21:07.598Z,24.18
2019-04-16T04:22:07.581Z,24.08
2019-04-16T04:23:07.582Z,24.38
2019-04-16T04:24:07.545Z,24.18
2019-04-16T04:25:07.561Z,23.99
2019-04-16T04:26:08.844Z,24.58
2019-04-16T04:27:07.523Z,24.48
2019-04-16T04:28:07.499Z,24.48
2019-04-16T04:29:07.809Z,23.99
2019-04-16T04:30:07.498Z,24.38
2019-04-16T04:31:07.474Z,24.18
2019-04-16T04:32:07.543Z,24.58
2019-04-16T04:33:09.651Z,24.18
2019-04-16T04:34:09.981Z,24.29
2019-04-16T04:35:07.441Z,23.99
2019-04-16T04:36:07.418Z,24.18
2019-04-16T04:37:07.404Z,24.38
2019-04-16T04:38:07.541Z,24.18
2019-04-16T04:39:09.953Z,24.58
2019-04-16T04:40:08.366Z,24.38
2019-04-16T04:41:07.852Z,24.38
2019-04-16T04:42:07.366Z,24.18
2019-04-16T04:43:07.355Z,23.99
2019-04-16T04:44:07.356Z,24.68
2019-04-16T04:45:08.937Z,24.38
2019-04-16T04:46:12.859Z,24.58
2019-04-16T04:47:08.295Z,24.08
2019-04-16T04:48:10.566Z,23.99
2019-04-16T04:49:07.261Z,24.48
2019-04-16T04:50:07.261Z,23.79
2019-04-16T04:51:08.736Z,24.58
2019-04-16T04:52:07.232Z,24.29
2019-04-16T04:53:07.226Z,23.79
2019-04-16T04:54:07.230Z,24.48
2019-04-16T04:55:07.203Z,24.18
2019-04-16T04:56:07.197Z,24.58
2019-04-16T04:57:07.173Z,24.08
2019-04-16T04:58:07.167Z,24.29
2019-04-16T04:59:07.163Z,24.58
2019-04-16T05:00:08.422Z,24.29
2019-04-16T05:01:09.561Z,24.48
2019-04-16T05:02:10.868Z,24.38
2019-04-16T05:03:08.114Z,24.38
2019-04-16T05:04:07.106Z,24.38
2019-04-16T05:05:07.104Z,24.68
2019-04-16T05:06:07.078Z,24.88
2019-04-16T05:07:07.057Z,24.48
2019-04-16T05:08:07.079Z,24.48
2019-04-16T05:09:07.060Z,24.48
2019-04-16T05:10:07.340Z,24.58
2019-04-16T05:11:07.017Z,24.68
2019-04-16T05:12:08.181Z,24.68
2019-04-16T05:13:07.009Z,24.19
2019-04-16T05:14:06.988Z,24.38
2019-04-16T05:15:06.974Z,23.80
2019-04-16T05:16:07.166Z,24.30
2019-04-16T05:17:07.581Z,24.40
2019-04-16T05:18:09.922Z,24.30
2019-04-16T05:19:06.925Z,24.30
2019-04-16T05:20:06.919Z,24.10
2019-04-16T05:21:06.922Z,23.99
2019-04-16T05:22:06.892Z,24.19
2019-04-16T05:23:06.897Z,24.19
2019-04-16T05:24:06.901Z,24.19
2019-04-16T05:25:06.855Z,24.10
2019-04-16T05:26:09.712Z,24.30
2019-04-16T05:27:08.543Z,24.69
2019-04-16T05:28:11.637Z,24.69
2019-04-16T05:29:07.818Z,24.60
2019-04-16T05:30:06.798Z,24.49
2019-04-16T05:31:06.784Z,24.30
2019-04-16T05:32:06.778Z,24.18
2019-04-16T05:33:06.761Z,24.40
2019-04-16T05:34:06.821Z,24.48
2019-04-16T05:35:10.196Z,24.40
2019-04-16T05:36:06.727Z,24.48
2019-04-16T05:37:06.721Z,24.30
2019-04-16T05:38:06.705Z,24.79
2019-04-16T05:39:06.695Z,24.10
2019-04-16T05:40:06.695Z,24.18
2019-04-16T05:41:13.062Z,24.58
2019-04-16T05:42:07.673Z,24.30
2019-04-16T05:43:06.655Z,24.18
2019-04-16T05:44:06.656Z,24.18
2019-04-16T05:45:06.661Z,24.29
2019-04-16T05:46:08.982Z,24.18
2019-04-16T05:47:06.632Z,24.08
2019-04-16T05:48:06.601Z,24.18
2019-04-16T05:49:06.593Z,24.58
2019-04-16T05:50:06.582Z,24.29
2019-04-16T05:51:06.571Z,24.38
2019-04-16T05:52:06.571Z,24.68
2019-04-16T05:53:08.386Z,24.08
2019-04-16T05:54:08.459Z,24.68
2019-04-16T05:55:07.520Z,24.48
2019-04-16T05:56:06.527Z,23.99
2019-04-16T05:57:06.550Z,24.29
2019-04-16T05:58:06.492Z,24.48
2019-04-16T05:59:06.518Z,24.58
2019-04-16T06:00:10.056Z,24.79
2019-04-16T06:01:06.455Z,24.08
2019-04-16T06:02:06.491Z,24.08
2019-04-16T06:03:06.439Z,24.68
2019-04-16T06:04:06.410Z,24.18
2019-04-16T06:05:06.406Z,24.18
2019-04-16T06:06:06.412Z,24.29
2019-04-16T06:07:07.726Z,24.29
2019-04-16T06:08:09.078Z,24.58
2019-04-16T06:09:06.377Z,24.29
2019-04-16T06:10:07.026Z,24.38
2019-04-16T06:11:06.335Z,24.29
2019-04-16T06:12:08.913Z,24.29
2019-04-16T06:13:06.331Z,24.29
2019-04-16T06:14:06.408Z,24.29
2019-04-16T06:15:06.296Z,24.48
2019-04-16T06:16:06.275Z,24.18
2019-04-16T06:17:06.663Z,24.88
2019-04-16T06:18:06.257Z,24.48
2019-04-16T06:19:08.490Z,24.48
2019-04-16T06:20:07.222Z,24.79
2019-04-16T06:21:06.232Z,24.79
2019-04-16T06:22:06.218Z,24.58
2019-04-16T06:23:06.218Z,24.79
2019-04-16T06:24:06.192Z,24.79
2019-04-16T06:25:09.225Z,24.79
2019-04-16T06:26:06.169Z,24.79
2019-04-16T06:27:06.195Z,24.98
2019-04-16T06:28:06.140Z,24.58
2019-04-16T06:29:06.145Z,24.48
2019-04-16T06:30:06.116Z,24.18
2019-04-16T06:31:09.930Z,24.57
2019-04-16T06:32:08.470Z,24.97
2019-04-16T06:33:07.091Z,24.87
2019-04-16T06:34:06.087Z,24.47
2019-04-16T06:35:06.059Z,24.17
2019-04-16T06:36:06.056Z,24.77
2019-04-16T06:37:06.076Z,24.67
2019-04-16T06:38:06.116Z,24.87
2019-04-16T06:39:06.013Z,24.87
2019-04-16T06:40:06.001Z,24.77
2019-04-16T06:41:05.997Z,24.27
2019-04-16T06:42:05.985Z,24.87
2019-04-16T06:43:05.992Z,24.77
2019-04-16T06:44:05.953Z,24.77
2019-04-16T06:45:05.964Z,24.87
2019-04-16T06:46:08.529Z,24.87
2019-04-16T06:47:10.523Z,24.37
2019-04-16T06:48:06.939Z,25.47
2019-04-16T06:49:05.917Z,24.77
2019-04-16T06:50:05.901Z,24.76
2019-04-16T06:51:05.877Z,24.37
2019-04-16T06:52:05.868Z,25.16
2019-04-16T06:53:05.868Z,25.16
2019-04-16T06:54:05.849Z,25.16
2019-04-16T06:55:05.854Z,25.17
2019-04-16T06:56:08.572Z,25.16
2019-04-16T06:57:05.807Z,25.56
2019-04-16T06:58:05.817Z,24.86
2019-04-16T06:59:05.800Z,24.96
2019-04-16T07:00:07.303Z,24.96
2019-04-16T07:01:06.912Z,25.06
2019-04-16T07:02:07.694Z,24.56
2019-04-16T07:03:05.749Z,25.06
2019-04-16T07:04:06.922Z,24.56
2019-04-16T07:05:05.713Z,25.16
2019-04-16T07:06:05.700Z,24.26
2019-04-16T07:07:08.578Z,24.26
2019-04-16T07:08:05.742Z,24.46
2019-04-16T07:09:05.691Z,25.66
2019-04-16T07:10:05.664Z,25.06
2019-04-16T07:11:05.693Z,25.56
2019-04-16T07:12:05.646Z,25.76
2019-04-16T07:13:10.259Z,25.46
2019-04-16T07:14:06.749Z,25.56
2019-04-16T07:15:05.642Z,25.95
2019-04-16T07:16:05.592Z,25.56
2019-04-16T07:17:05.579Z,25.55
2019-04-16T07:18:06.305Z,25.36
2019-04-16T07:19:10.196Z,26.26
2019-04-16T07:20:06.608Z,26.06
2019-04-16T07:21:05.695Z,26.26
2019-04-16T07:22:05.521Z,25.65
2019-04-16T07:23:05.517Z,26.04
2019-04-16T07:24:05.601Z,25.45
2019-04-16T07:25:06.439Z,25.24
2019-04-16T07:26:05.602Z,26.25
2019-04-16T07:27:05.545Z,25.45
2019-04-16T07:28:05.471Z,25.26
2019-04-16T07:29:05.447Z,25.55
2019-04-16T07:30:08.131Z,25.24
2019-04-16T07:31:05.491Z,26.15
2019-04-16T07:32:05.541Z,25.55
2019-04-16T07:33:05.411Z,25.35
2019-04-16T07:34:05.414Z,24.75
2019-04-16T07:35:05.378Z,25.55
2019-04-16T07:36:05.393Z,25.95
2019-04-16T07:37:05.361Z,25.35
2019-04-16T07:38:06.668Z,25.35
2019-04-16T07:39:06.115Z,25.55
2019-04-16T07:40:08.689Z,25.45
2019-04-16T07:41:05.311Z,25.55
2019-04-16T07:42:10.606Z,25.45
2019-04-16T07:43:06.336Z,26.15
2019-04-16T07:44:10.247Z,26.04
2019-04-16T07:45:11.689Z,24.75
2019-04-16T07:46:06.265Z,25.05
2019-04-16T07:47:05.383Z,24.85
2019-04-16T07:48:06.747Z,25.45
2019-04-16T07:49:05.242Z,25.45
2019-04-16T07:50:05.277Z,24.95
2019-04-16T07:51:05.562Z,25.85
2019-04-16T07:52:07.806Z,24.95
2019-04-16T07:53:06.196Z,25.74
2019-04-16T07:54:05.248Z,24.45
2019-04-16T07:55:05.185Z,24.75
2019-04-16T07:56:05.195Z,26.25
2019-04-16T07:57:05.197Z,25.95
2019-04-16T07:58:05.155Z,25.55
2019-04-16T07:59:05.155Z,25.45
2019-04-16T08:00:08.207Z,25.74
2019-04-16T08:01:05.171Z,24.55
2019-04-16T08:02:05.081Z,24.04
2019-04-16T08:03:05.175Z,25.15
2019-04-16T08:04:05.179Z,25.05
2019-04-16T08:05:08.944Z,24.45
2019-04-16T08:06:05.032Z,26.15
2019-04-16T08:07:05.053Z,25.85
2019-04-16T08:08:05.007Z,26.34
2019-04-16T08:09:05.015Z,26.45
2019-04-16T08:10:04.986Z,26.94
2019-04-16T08:11:04.982Z,26.53
2019-04-16T08:12:10.852Z,26.84
2019-04-16T08:13:05.951Z,26.43
2019-04-16T08:14:08.908Z,26.73
2019-04-16T08:15:13.863Z,26.45
2019-04-16T08:16:05.913Z,26.53
2019-04-16T08:17:05.088Z,26.43
2019-04-16T08:18:04.973Z,26.83
2019-04-16T08:19:04.900Z,26.23
2019-04-16T08:20:04.882Z,25.93
2019-04-16T08:21:10.216Z,25.93
2019-04-16T08:22:05.879Z,25.93
2019-04-16T08:23:04.864Z,26.33
2019-04-16T08:24:05.198Z,26.23
2019-04-16T08:25:04.831Z,26.33
2019-04-16T08:26:11.505Z,25.63
2019-04-16T08:27:05.787Z,25.63
2019-04-16T08:28:06.943Z,26.23
2019-04-16T08:29:04.794Z,25.23
2019-04-16T08:30:04.757Z,25.93
2019-04-16T08:31:10.505Z,25.23
2019-04-16T08:32:05.919Z,25.54
2019-04-16T08:33:04.738Z,25.54
2019-04-16T08:34:05.047Z,25.43
2019-04-16T08:35:04.724Z,25.43
2019-04-16T08:36:04.708Z,25.43
2019-04-16T08:37:07.966Z,25.54
2019-04-16T08:38:04.670Z,25.54
2019-04-16T08:39:06.476Z,25.63
2019-04-16T08:40:04.654Z,25.63
2019-04-16T08:41:04.971Z,25.43
2019-04-16T08:42:04.623Z,25.63
2019-04-16T08:43:04.779Z,25.73
2019-04-16T08:44:04.840Z,25.54
2019-04-16T08:45:07.364Z,25.34
2019-04-16T08:46:04.576Z,25.34
2019-04-16T08:47:04.562Z,25.63
2019-04-16T08:48:04.560Z,25.84
2019-04-16T08:49:04.550Z,24.84
2019-04-16T08:50:04.627Z,26.03
2019-04-16T08:51:05.358Z,26.03
2019-04-16T08:52:09.676Z,25.84
2019-04-16T08:53:05.698Z,25.34
2019-04-16T08:54:04.549Z,25.43
2019-04-16T08:55:04.482Z,24.74
2019-04-16T08:56:04.464Z,24.74
2019-04-16T08:57:04.502Z,24.84
2019-04-16T08:58:06.343Z,25.84
2019-04-16T08:59:09.508Z,25.73
2019-04-16T09:00:05.459Z,26.23
2019-04-16T09:01:04.437Z,26.03
2019-04-16T09:02:04.425Z,24.93
2019-04-16T09:03:04.632Z,25.04
2019-04-16T09:04:04.396Z,24.63
2019-04-16T09:05:06.532Z,24.93
2019-04-16T09:06:05.383Z,24.74
2019-04-16T09:07:11.971Z,26.23
2019-04-16T09:08:12.614Z,25.23
2019-04-16T09:09:12.458Z,25.63
2019-04-16T09:10:16.236Z,24.84
2019-04-16T09:11:05.294Z,25.43
2019-04-16T09:12:07.933Z,25.13
2019-04-16T09:13:05.127Z,25.04
2019-04-16T09:14:04.271Z,25.04
2019-04-16T09:15:04.283Z,25.04
2019-04-16T09:16:04.436Z,25.23
2019-04-16T09:17:04.242Z,25.04
2019-04-16T09:18:04.220Z,25.13
2019-04-16T09:19:04.223Z,25.04
2019-04-16T09:20:05.157Z,25.13
2019-04-16T09:21:06.870Z,24.84
2019-04-16T09:22:05.177Z,25.04
2019-04-16T09:23:04.171Z,25.23
2019-04-16T09:24:08.811Z,24.93
2019-04-16T09:25:05.296Z,24.33
2019-04-16T09:26:12.927Z,25.04
2019-04-16T09:27:05.173Z,24.93
2019-04-16T09:28:07.576Z,25.04
2019-04-16T09:29:09.551Z,24.93
2019-04-16T09:30:05.102Z,25.04
2019-04-16T09:31:04.084Z,25.04
2019-04-16T09:32:04.088Z,25.13
2019-04-16T09:33:04.061Z,25.23
2019-04-16T09:34:06.370Z,24.93
2019-04-16T09:35:09.789Z,24.63
2019-04-16T09:36:05.068Z,25.23
2019-04-16T09:37:04.007Z,25.04
2019-04-16T09:38:03.993Z,24.84
2019-04-16T09:39:04.002Z,24.33
2019-04-16T09:40:15.882Z,25.13
2019-04-16T09:41:04.968Z,25.13
2019-04-16T09:42:03.962Z,24.44
2019-04-16T09:43:16.128Z,25.04
2019-04-16T09:44:04.930Z,25.23
2019-04-16T09:45:04.975Z,24.93
2019-04-16T09:46:10.924Z,25.13
2019-04-16T09:47:05.429Z,24.14
2019-04-16T09:48:04.037Z,25.43
2019-04-16T09:49:04.933Z,25.54
2019-04-16T09:50:09.807Z,25.63
2019-04-16T09:51:04.895Z,25.23
2019-04-16T09:52:04.107Z,24.84
2019-04-16T09:53:03.839Z,24.24
2019-04-16T09:54:03.826Z,24.04
2019-04-16T09:55:03.820Z,25.13
2019-04-16T09:56:03.816Z,25.43
2019-04-16T09:57:03.783Z,25.23
2019-04-16T09:58:06.908Z,24.14
2019-04-16T09:59:03.762Z,25.34
2019-04-16T10:00:03.760Z,25.63
2019-04-16T10:01:03.754Z,24.24
2019-04-16T10:02:03.736Z,25.23
2019-04-16T10:03:03.723Z,24.44
2019-04-16T10:04:03.712Z,25.43
2019-04-16T10:05:03.695Z,25.34
2019-04-16T10:06:05.551Z,25.23
2019-04-16T10:07:03.687Z,25.34
2019-04-16T10:08:03.655Z,25.34
2019-04-16T10:09:03.683Z,25.34
2019-04-16T10:10:03.633Z,25.34
2019-04-16T10:11:06.026Z,24.14
2019-04-16T10:12:05.024Z,25.34
2019-04-16T10:13:03.625Z,25.63
2019-04-16T10:14:03.606Z,25.43
2019-04-16T10:15:03.587Z,25.54
2019-04-16T10:16:03.619Z,25.43
2019-04-16T10:17:03.585Z,24.24
2019-04-16T10:18:03.550Z,24.14
2019-04-16T10:19:07.810Z,25.74
2019-04-16T10:20:03.541Z,25.65
2019-04-16T10:21:03.556Z,25.23
2019-04-16T10:22:03.535Z,24.14
2019-04-16T10:23:03.501Z,25.23
2019-04-16T10:24:03.493Z,25.54
2019-04-16T10:25:03.471Z,25.73
2019-04-16T10:26:03.478Z,25.55
2019-04-16T10:27:04.482Z,25.05
2019-04-16T10:28:05.082Z,25.05
2019-04-16T10:29:05.890Z,25.24
2019-04-16T10:30:03.416Z,24.24
2019-04-16T10:31:03.399Z,24.93
2019-04-16T10:32:03.417Z,25.15
2019-04-16T10:33:03.377Z,25.23
2019-04-16T10:34:03.373Z,25.04
2019-04-16T10:35:03.367Z,25.23
2019-04-16T10:36:04.893Z,25.13
2019-04-16T10:37:03.667Z,25.13
2019-04-16T10:38:03.325Z,25.23
2019-04-16T10:39:03.333Z,25.23
2019-04-16T10:40:04.873Z,25.05
2019-04-16T10:41:03.333Z,25.34
2019-04-16T10:42:03.285Z,25.04
2019-04-16T10:43:03.271Z,25.15
2019-04-16T10:44:03.389Z,25.24
2019-04-16T10:45:03.246Z,24.84
2019-04-16T10:46:03.258Z,26.23
2019-04-16T10:47:03.257Z,25.05
2019-04-16T10:48:03.225Z,25.05
2019-04-16T10:49:03.237Z,25.04
2019-04-16T10:50:03.238Z,25.04
2019-04-16T10:51:03.234Z,26.03
2019-04-16T10:52:03.213Z,26.03
2019-04-16T10:53:03.177Z,24.74
2019-04-16T10:54:03.245Z,25.73
2019-04-16T10:55:03.175Z,25.73
2019-04-16T10:56:03.243Z,25.43
2019-04-16T10:57:03.173Z,25.54
2019-04-16T10:58:03.188Z,25.54
2019-04-16T10:59:03.121Z,25.73
2019-04-16T11:00:03.253Z,25.73
2019-04-16T11:01:03.238Z,25.84
2019-04-16T11:02:03.124Z,25.73
2019-04-16T11:03:03.282Z,25.43
2019-04-16T11:04:04.860Z,25.93
2019-04-16T11:05:03.282Z,25.54
2019-04-16T11:06:03.152Z,25.84
2019-04-16T11:07:03.108Z,25.93
2019-04-16T11:08:04.224Z,25.63
2019-04-16T11:09:03.161Z,25.54
2019-04-16T11:10:03.185Z,25.43
2019-04-16T11:11:03.071Z,25.42
2019-04-16T11:12:05.387Z,25.42
2019-04-16T11:13:02.977Z,25.42
2019-04-16T11:14:02.934Z,25.82
2019-04-16T11:15:03.000Z,25.52
2019-04-16T11:16:03.076Z,25.62
2019-04-16T11:17:03.070Z,25.02
2019-04-16T11:18:03.295Z,25.82
2019-04-16T11:19:03.022Z,25.72
2019-04-16T11:20:03.192Z,25.62
2019-04-16T11:21:02.968Z,25.52
2019-04-16T11:22:04.042Z,25.72
2019-04-16T11:23:03.297Z,25.72
2019-04-16T11:24:03.134Z,25.52
2019-04-16T11:25:03.151Z,25.32
2019-04-16T11:26:02.812Z,25.92
2019-04-16T11:27:02.931Z,25.52
2019-04-16T11:28:02.811Z,25.62
2019-04-16T11:29:02.877Z,25.72
2019-04-16T11:30:02.896Z,25.72
2019-04-16T11:31:03.059Z,25.52
2019-04-16T11:32:03.073Z,25.42
2019-04-16T11:33:03.097Z,25.72
2019-04-16T11:34:03.038Z,25.32
2019-04-16T11:35:03.036Z,25.34
2019-04-16T11:36:17.435Z,25.54
2019-04-16T11:37:08.247Z,25.42
2019-04-16T11:38:03.703Z,25.62
2019-04-16T11:39:02.841Z,25.82
2019-04-16T11:40:03.209Z,25.42
2019-04-16T11:41:02.704Z,25.22
2019-04-16T11:42:02.773Z,24.74
2019-04-16T11:43:03.240Z,25.82
2019-04-16T11:44:14.199Z,25.92
2019-04-16T11:45:03.786Z,26.12
2019-04-16T11:46:03.060Z,25.32
2019-04-16T11:47:02.592Z,25.82
2019-04-16T11:48:02.727Z,24.73
2019-04-16T11:49:02.597Z,25.82
2019-04-16T11:50:02.599Z,25.62
2019-04-16T11:51:02.590Z,25.92
2019-04-16T11:52:02.898Z,26.02
2019-04-16T11:53:02.559Z,25.52
2019-04-16T11:54:03.085Z,25.72
2019-04-16T11:55:02.840Z,25.52
2019-04-16T11:56:02.888Z,25.62
2019-04-16T11:57:02.967Z,25.62
2019-04-16T11:58:02.697Z,25.52
2019-04-16T11:59:02.662Z,25.62
2019-04-16T12:00:07.747Z,25.52
2019-04-16T12:01:03.898Z,25.42
2019-04-16T12:02:02.867Z,25.62
2019-04-16T12:03:02.785Z,25.42
2019-04-16T12:04:02.605Z,25.72
2019-04-16T12:05:02.406Z,25.82
2019-04-16T12:06:02.496Z,25.92
2019-04-16T12:07:05.165Z,25.52
2019-04-16T12:08:02.510Z,25.42
2019-04-16T12:09:02.482Z,25.82
2019-04-16T12:10:02.506Z,25.32
2019-04-16T12:11:02.449Z,25.62
2019-04-16T12:12:02.315Z,25.42
2019-04-16T12:13:03.940Z,25.72
2019-04-16T12:14:04.080Z,25.92
2019-04-16T12:15:03.632Z,25.72
2019-04-16T12:16:02.283Z,25.52
2019-04-16T12:17:02.242Z,25.62
2019-04-16T12:18:02.191Z,25.42
2019-04-16T12:19:02.234Z,25.41
2019-04-16T12:20:02.556Z,25.51
2019-04-16T12:21:02.182Z,25.52
2019-04-16T12:22:02.237Z,26.01
2019-04-16T12:23:02.213Z,26.51
2019-04-16T12:24:02.145Z,25.61
2019-04-16T12:25:02.313Z,25.81
2019-04-16T12:26:02.146Z,26.21
2019-04-16T12:27:02.154Z,26.31
2019-04-16T12:28:06.432Z,26.31
2019-04-16T12:29:03.080Z,26.40
2019-04-16T12:30:02.206Z,26.21
2019-04-16T12:31:02.046Z,26.10
2019-04-16T12:32:04.301Z,25.81
2019-04-16T12:33:07.480Z,25.81
2019-04-16T12:34:03.052Z,26.31
2019-04-16T12:35:02.099Z,26.40
2019-04-16T12:36:01.986Z,26.40
2019-04-16T12:37:01.998Z,26.10
2019-04-16T12:38:02.041Z,26.31
2019-04-16T12:39:02.011Z,26.31
2019-04-16T12:40:02.461Z,26.31
2019-04-16T12:41:02.186Z,26.61
2019-04-16T12:42:02.103Z,26.01
2019-04-16T12:43:01.907Z,26.81
2019-04-16T12:44:02.370Z,26.10
2019-04-16T12:45:01.964Z,26.31
2019-04-16T12:46:01.892Z,26.81
2019-04-16T12:47:01.864Z,26.79
2019-04-16T12:48:01.896Z,26.70
2019-04-16T12:49:01.829Z,26.69
2019-04-16T12:50:01.866Z,26.61
2019-04-16T12:51:02.211Z,26.10
2019-04-16T12:52:01.832Z,26.79